Time;durP1;ratioP1;P1;durP2;ratioP2;P2;SDS_P1;SDS_P2;PMS_P1;PMS_P2;Temp;Humidity;BMP_temperature;BMP_pressure;BME280_temperature;BME280_humidity;BME280_pressure;Samples;Min_cycle;Max_cycle;Signal;HPM_P1;HPM_P2
2022/09/26 00:02:09;;;;;;;2.93;2.30;;;11.20;99.90;;;;;;5025086;28;20619;-78
2022/09/26 00:04:37;;;;;;;2.60;2.03;;;11.20;99.90;;;;;;5008976;28;20633;-78
2022/09/26 00:07:04;;;;;;;6.43;2.37;;;11.10;99.90;;;;;;5024635;28;20623;-78
2022/09/26 00:09:31;;;;;;;3.30;3.00;;;11.00;99.90;;;;;;5028176;28;20633;-78
2022/09/26 00:11:57;;;;;;;2.50;2.13;;;11.00;99.90;;;;;;5028384;28;20631;-78
2022/09/26 00:14:26;;;;;;;3.80;2.80;;;11.00;99.90;;;;;;5026609;28;20677;-77
2022/09/26 00:16:53;;;;;;;5.13;2.77;;;11.00;99.90;;;;;;5027804;28;20667;-77
2022/09/26 00:19:20;;;;;;;3.77;2.80;;;11.00;99.90;;;;;;5028090;28;20655;-78
2022/09/26 00:21:49;;;;;;;3.97;3.50;;;10.90;99.90;;;;;;5028047;28;20639;-77
2022/09/26 00:24:16;;;;;;;2.60;2.40;;;11.00;99.90;;;;;;5027640;28;20642;-78
2022/09/26 00:26:43;;;;;;;4.47;2.57;;;11.00;99.90;;;;;;5028457;28;20723;-77
2022/09/26 00:29:12;;;;;;;4.10;3.13;;;10.90;99.90;;;;;;5027658;28;20689;-78
2022/09/26 00:31:41;;;;;;;4.73;3.30;;;10.80;99.90;;;;;;5028460;28;20631;-77
2022/09/26 00:34:09;;;;;;;2.83;2.53;;;10.70;99.90;;;;;;5026491;28;21203;-77
2022/09/26 00:36:36;;;;;;;3.10;2.50;;;10.70;99.90;;;;;;5022905;28;20992;-77
2022/09/26 00:39:05;;;;;;;4.43;3.20;;;10.70;99.90;;;;;;5008777;28;20635;-77
2022/09/26 00:41:33;;;;;;;3.67;2.17;;;10.70;99.90;;;;;;5020281;28;20743;-78
2022/09/26 00:44:00;;;;;;;4.80;2.87;;;10.60;99.90;;;;;;5028085;28;20627;-77
2022/09/26 00:46:31;;;;;;;4.77;3.00;;;10.60;99.90;;;;;;5026804;28;20627;-77
2022/09/26 00:49:07;;;;;;;3.37;3.07;;;10.50;99.90;;;;;;5028281;28;21044;-77
2022/09/26 00:51:38;;;;;;;2.70;2.33;;;10.50;99.90;;;;;;5027969;28;20759;-77
2022/09/26 00:54:10;;;;;;;2.97;2.67;;;10.40;99.90;;;;;;5027411;28;20627;-79
2022/09/26 00:56:38;;;;;;;2.40;2.17;;;10.30;99.90;;;;;;5027335;28;20619;-77
2022/09/26 00:59:13;;;;;;;2.93;2.40;;;10.30;99.90;;;;;;5018819;28;20623;-78
2022/09/26 01:01:40;;;;;;;3.63;3.43;;;10.30;99.90;;;;;;5027605;28;20642;-78
2022/09/26 01:04:08;;;;;;;2.50;2.30;;;10.20;99.90;;;;;;5026091;28;20645;-78
2022/09/26 01:06:36;;;;;;;4.40;2.80;;;10.20;99.90;;;;;;5026604;28;20616;-78
2022/09/26 01:09:07;;;;;;;2.50;2.30;;;10.20;99.90;;;;;;5027337;28;20646;-77
2022/09/26 01:11:37;;;;;;;4.20;3.80;;;10.20;99.90;;;;;;5026976;28;20631;-77
2022/09/26 01:14:04;;;;;;;4.27;3.50;;;10.20;99.90;;;;;;5025699;28;21244;-78
2022/09/26 01:16:32;;;;;;;5.70;2.80;;;10.10;99.90;;;;;;5026686;28;20628;-77
2022/09/26 01:19:01;;;;;;;5.47;3.17;;;10.10;99.90;;;;;;5027583;28;20735;-78
2022/09/26 01:22:01;;;;;;;3.03;2.40;;;10.00;99.90;;;;;;5026275;28;21021;-78
2022/09/26 01:24:50;;;;;;;4.37;4.07;;;9.90;99.90;;;;;;5026608;28;20630;-78
2022/09/26 01:27:36;;;;;;;4.00;3.20;;;9.90;99.90;;;;;;5026949;28;20635;-78
2022/09/26 01:30:11;;;;;;;2.77;2.00;;;9.90;99.90;;;;;;5026826;28;20682;-79
2022/09/26 01:33:06;;;;;;;2.70;2.13;;;9.90;99.90;;;;;;5026586;28;20701;-78
2022/09/26 01:35:53;;;;;;;2.30;2.10;;;9.80;99.90;;;;;;5025177;28;21212;-77
2022/09/26 01:38:27;;;;;;;4.63;2.43;;;9.80;99.90;;;;;;5022111;28;20770;-77
2022/09/26 01:41:09;;;;;;;2.53;2.33;;;9.80;99.90;;;;;;5013072;28;20707;-78
2022/09/26 01:43:42;;;;;;;2.40;2.20;;;9.80;99.90;;;;;;5024864;28;21029;-77
2022/09/26 01:46:24;;;;;;;3.67;2.90;;;9.60;99.90;;;;;;5025427;28;20654;-77
2022/09/26 01:48:57;;;;;;;2.80;2.37;;;9.60;99.90;;;;;;5017871;28;20681;-77
2022/09/26 01:51:32;;;;;;;3.77;3.37;;;9.60;99.90;;;;;;5027144;28;20659;-77
2022/09/26 01:54:05;;;;;;;3.00;2.40;;;9.60;99.90;;;;;;5015016;28;20964;-77
2022/09/26 01:56:37;;;;;;;3.73;3.37;;;9.60;99.90;;;;;;5026298;28;20628;-78
2022/09/26 01:59:08;;;;;;;2.43;2.20;;;9.70;99.90;;;;;;5014848;28;20666;-77
2022/09/26 02:01:41;;;;;;;3.23;2.57;;;9.60;99.90;;;;;;5021979;28;20710;-77
2022/09/26 02:04:10;;;;;;;1.90;1.80;;;9.70;99.90;;;;;;5010932;28;21170;-77
2022/09/26 02:06:40;;;;;;;2.57;2.37;;;9.70;99.90;;;;;;5024869;28;20975;-77
2022/09/26 02:09:11;;;;;;;3.10;2.77;;;9.60;99.90;;;;;;5026735;28;20668;-78
2022/09/26 02:11:42;;;;;;;4.00;2.67;;;9.60;99.90;;;;;;5026379;28;20631;-77
2022/09/26 02:14:13;;;;;;;3.77;3.07;;;9.70;99.90;;;;;;5024424;28;20738;-78
2022/09/26 02:16:46;;;;;;;3.13;2.63;;;9.70;99.90;;;;;;5017486;28;20640;-77
2022/09/26 02:19:18;;;;;;;2.67;2.47;;;9.80;99.90;;;;;;5026686;28;20695;-78
2022/09/26 02:21:46;;;;;;;4.73;3.90;;;9.70;99.90;;;;;;5026082;28;20632;-78
2022/09/26 02:24:14;;;;;;;2.30;1.93;;;9.70;99.90;;;;;;5006757;28;20608;-78
2022/09/26 02:26:42;;;;;;;3.53;3.13;;;9.70;99.90;;;;;;5021810;28;20710;-77
2022/09/26 02:29:09;;;;;;;5.63;3.80;;;9.80;99.90;;;;;;5026530;28;20773;-78
2022/09/26 02:31:40;;;;;;;2.90;2.70;;;9.80;99.90;;;;;;5026109;28;21272;-77
2022/09/26 02:34:09;;;;;;;3.13;2.93;;;9.70;99.90;;;;;;5026157;28;20642;-78
2022/09/26 02:36:37;;;;;;;4.40;3.07;;;9.80;99.90;;;;;;5025738;28;20714;-78
2022/09/26 02:39:04;;;;;;;3.73;3.43;;;9.80;99.90;;;;;;5025194;28;21163;-77
2022/09/26 02:41:38;;;;;;;1.87;1.70;;;9.80;99.90;;;;;;5025920;28;20945;-77
2022/09/26 02:44:22;;;;;;;3.10;2.33;;;9.80;99.90;;;;;;5025931;28;20623;-77
2022/09/26 02:47:30;;;;;;;2.53;2.30;;;9.80;99.90;;;;;;5019860;28;20718;-77
2022/09/26 02:50:20;;;;;;;3.70;2.23;;;9.90;99.90;;;;;;5003819;28;20620;-77
2022/09/26 02:52:56;;;;;;;3.20;2.70;;;9.80;99.90;;;;;;4990675;28;20624;-77
2022/09/26 02:55:30;;;;;;;2.33;2.17;;;9.80;99.90;;;;;;5005148;28;20628;-77
2022/09/26 02:58:07;;;;;;;2.47;2.17;;;9.70;99.90;;;;;;5016611;28;20695;-77
2022/09/26 03:00:48;;;;;;;4.30;3.00;;;9.80;99.90;;;;;;5030344;28;20677;-78
2022/09/26 03:03:22;;;;;;;2.50;2.30;;;9.80;99.90;;;;;;5023378;28;20624;-78
2022/09/26 03:05:53;;;;;;;3.30;2.67;;;9.90;99.90;;;;;;5029523;28;20630;-78
2022/09/26 03:08:24;;;;;;;2.67;2.50;;;9.90;99.90;;;;;;5016253;28;20659;-78
2022/09/26 03:10:52;;;;;;;3.10;2.80;;;9.90;99.90;;;;;;5030366;28;20861;-77
2022/09/26 03:13:20;;;;;;;3.60;2.63;;;9.80;99.90;;;;;;5027620;28;20997;-77
2022/09/26 03:15:51;;;;;;;2.97;1.90;;;9.90;99.90;;;;;;5029038;28;20635;-78
2022/09/26 03:18:23;;;;;;;2.43;2.20;;;9.90;99.90;;;;;;5013495;28;21248;-77
2022/09/26 03:20:53;;;;;;;3.57;2.20;;;9.90;99.90;;;;;;5029758;28;20631;-77
2022/09/26 03:23:22;;;;;;;3.23;2.43;;;9.90;99.90;;;;;;5029570;28;20681;-77
2022/09/26 03:25:59;;;;;;;2.60;2.40;;;9.90;99.90;;;;;;5028686;28;20619;-77
2022/09/26 03:28:26;;;;;;;3.27;2.83;;;9.90;99.90;;;;;;5028912;28;20722;-77
2022/09/26 03:30:53;;;;;;;3.27;2.97;;;9.90;99.90;;;;;;5030048;28;20721;-78
2022/09/26 03:33:20;;;;;;;2.90;2.10;;;9.90;99.90;;;;;;5028946;28;20739;-77
2022/09/26 03:35:47;;;;;;;3.80;2.50;;;9.90;99.90;;;;;;5028614;28;20645;-77
2022/09/26 03:38:15;;;;;;;2.33;1.77;;;9.90;99.90;;;;;;5026217;28;20669;-78
2022/09/26 03:40:42;;;;;;;4.27;3.23;;;9.90;99.90;;;;;;5029018;28;20623;-77
2022/09/26 03:43:09;;;;;;;2.53;2.33;;;9.90;99.90;;;;;;5028729;28;20722;-78
2022/09/26 03:45:36;;;;;;;4.13;2.80;;;9.90;99.90;;;;;;5026087;28;20625;-78
2022/09/26 03:48:05;;;;;;;3.30;3.00;;;9.80;99.90;;;;;;5019938;28;20634;-77
2022/09/26 03:50:33;;;;;;;2.20;1.90;;;9.80;99.90;;;;;;5029236;28;21214;-77
2022/09/26 03:53:00;;;;;;;3.20;2.90;;;9.80;99.90;;;;;;5030250;28;20627;-77
2022/09/26 03:55:28;;;;;;;3.87;3.00;;;9.80;99.90;;;;;;5028293;28;21013;-78
2022/09/26 03:57:55;;;;;;;3.03;2.60;;;9.80;99.90;;;;;;5027465;28;20777;-78
2022/09/26 04:00:22;;;;;;;3.30;2.03;;;9.80;99.90;;;;;;5029939;28;20718;-77
2022/09/26 04:02:49;;;;;;;2.30;2.03;;;9.80;99.90;;;;;;5028567;28;20999;-78
2022/09/26 04:05:16;;;;;;;6.20;3.53;;;9.80;99.90;;;;;;5028519;28;20631;-78
2022/09/26 04:07:43;;;;;;;3.70;2.50;;;9.90;99.90;;;;;;5028156;28;20627;-78
2022/09/26 04:10:11;;;;;;;3.03;1.87;;;9.90;99.90;;;;;;5028368;28;21196;-77
2022/09/26 04:12:39;;;;;;;2.07;1.63;;;9.90;99.90;;;;;;5028139;28;20636;-77
2022/09/26 04:15:07;;;;;;;2.23;2.10;;;9.90;99.90;;;;;;5028669;28;20631;-76
2022/09/26 04:17:34;;;;;;;4.53;3.20;;;9.90;99.90;;;;;;5028719;28;20632;-77
2022/09/26 04:20:01;;;;;;;3.43;2.00;;;9.90;99.90;;;;;;5029172;28;20638;-78
2022/09/26 04:22:28;;;;;;;1.70;1.60;;;9.90;99.90;;;;;;5028494;28;21034;-78
2022/09/26 04:24:55;;;;;;;2.53;2.07;;;9.90;99.90;;;;;;5028052;28;20623;-77
2022/09/26 04:27:26;;;;;;;3.27;2.87;;;9.90;99.90;;;;;;5022749;28;20705;-77
2022/09/26 04:29:56;;;;;;;3.00;2.70;;;9.90;99.90;;;;;;5017703;28;20636;-78
2022/09/26 04:32:22;;;;;;;2.70;2.17;;;9.90;99.90;;;;;;5019853;28;20634;-79
2022/09/26 04:34:49;;;;;;;3.27;2.07;;;9.80;99.90;;;;;;5021726;28;20641;-79
2022/09/26 04:37:16;;;;;;;3.00;1.87;;;9.80;99.90;;;;;;5022559;28;21582;-79
2022/09/26 04:39:43;;;;;;;3.27;2.30;;;9.80;99.90;;;;;;5020432;28;20702;-79
2022/09/26 04:42:10;;;;;;;2.97;2.00;;;9.70;99.90;;;;;;5020170;28;20631;-79
2022/09/26 04:44:36;;;;;;;2.97;2.20;;;9.80;99.90;;;;;;5019872;28;20626;-79
2022/09/26 04:47:05;;;;;;;1.67;1.57;;;9.80;99.90;;;;;;5021389;28;20628;-79
2022/09/26 04:49:32;;;;;;;2.90;2.60;;;9.70;99.90;;;;;;5018639;28;20653;-79
2022/09/26 04:51:58;;;;;;;2.33;2.17;;;9.70;99.90;;;;;;5022711;28;20632;-79
2022/09/26 04:54:25;;;;;;;1.70;1.60;;;9.70;99.90;;;;;;5023756;28;20919;-79
2022/09/26 04:56:52;;;;;;;2.23;1.90;;;9.70;99.90;;;;;;5018471;28;20623;-79
2022/09/26 04:59:19;;;;;;;2.00;1.57;;;9.60;99.90;;;;;;5017265;28;20671;-79
2022/09/26 05:01:46;;;;;;;2.00;1.83;;;9.60;99.90;;;;;;5019620;28;21397;-79
2022/09/26 05:04:14;;;;;;;2.37;2.17;;;9.70;99.90;;;;;;5026015;28;20973;-79
2022/09/26 05:06:41;;;;;;;1.43;1.33;;;9.70;99.90;;;;;;5028451;28;20628;-79
2022/09/26 05:09:08;;;;;;;1.40;1.30;;;9.60;99.90;;;;;;5028359;28;20644;-79
2022/09/26 05:11:35;;;;;;;2.57;2.40;;;9.50;99.90;;;;;;5026970;28;20620;-79
2022/09/26 05:14:03;;;;;;;2.20;1.67;;;9.50;99.90;;;;;;5026826;28;20644;-79
2022/09/26 05:16:29;;;;;;;2.20;1.77;;;9.60;99.90;;;;;;5026823;28;20619;-79
2022/09/26 05:18:56;;;;;;;3.70;2.73;;;9.70;99.90;;;;;;5026951;28;20655;-79
2022/09/26 05:21:24;;;;;;;5.60;2.17;;;9.80;99.90;;;;;;5026386;28;20612;-79
2022/09/26 05:26:41;;;;;;;3.73;2.90;;;9.80;99.90;;;;;;5026827;28;21180;-79
2022/09/26 05:29:08;;;;;;;2.30;2.10;;;9.60;99.90;;;;;;5027724;28;20635;-80
2022/09/26 05:31:36;;;;;;;3.40;2.07;;;9.60;99.90;;;;;;5025787;28;20648;-78
2022/09/26 05:34:04;;;;;;;2.63;2.40;;;9.50;99.90;;;;;;5012244;28;20709;-79
2022/09/26 05:36:32;;;;;;;2.30;2.10;;;9.50;99.90;;;;;;5024132;28;20630;-79
2022/09/26 05:38:59;;;;;;;2.30;2.03;;;9.50;99.90;;;;;;5018970;28;20679;-78
2022/09/26 05:41:27;;;;;;;3.40;2.67;;;9.50;99.90;;;;;;5027493;28;20984;-79
2022/09/26 05:43:55;;;;;;;3.90;2.63;;;9.50;99.90;;;;;;5017401;28;20624;-79
2022/09/26 05:46:22;;;;;;;2.57;2.37;;;9.50;99.90;;;;;;5027215;28;20642;-80
2022/09/26 05:48:49;;;;;;;1.70;1.60;;;9.50;99.90;;;;;;5027206;28;20662;-79
2022/09/26 05:51:20;;;;;;;2.07;1.80;;;9.50;99.90;;;;;;5026990;28;20627;-79
2022/09/26 05:53:49;;;;;;;2.60;1.80;;;9.50;99.90;;;;;;5014245;28;20677;-78
2022/09/26 05:56:19;;;;;;;1.97;1.77;;;9.50;99.90;;;;;;5026476;28;20626;-79
2022/09/26 05:58:46;;;;;;;2.53;2.33;;;9.50;99.90;;;;;;5027264;28;20678;-79
2022/09/26 06:01:15;;;;;;;1.57;1.20;;;9.60;99.90;;;;;;5026919;28;20990;-79
2022/09/26 06:03:43;;;;;;;2.23;2.03;;;9.60;99.90;;;;;;5018598;28;20628;-79
2022/09/26 06:06:11;;;;;;;1.93;1.83;;;9.60;99.90;;;;;;5023154;28;20627;-79
2022/09/26 06:08:40;;;;;;;1.40;1.30;;;9.50;99.90;;;;;;5033984;28;20627;-79
2022/09/26 06:11:11;;;;;;;2.23;1.80;;;9.70;99.90;;;;;;5028853;28;21358;-79
2022/09/26 06:13:39;;;;;;;2.70;2.03;;;9.80;99.90;;;;;;5028059;28;20767;-79
2022/09/26 06:16:08;;;;;;;2.13;1.83;;;9.90;99.90;;;;;;5026713;28;20650;-79
2022/09/26 06:18:36;;;;;;;3.30;2.60;;;10.00;99.90;;;;;;5025915;28;21573;-79
2022/09/26 06:21:03;;;;;;;3.53;2.00;;;10.00;99.90;;;;;;5022353;28;20634;-79
2022/09/26 06:23:30;;;;;;;2.70;1.63;;;10.20;99.90;;;;;;5025438;28;20616;-79
2022/09/26 06:25:57;;;;;;;5.47;3.23;;;10.30;99.90;;;;;;5026515;28;20619;-79
2022/09/26 06:28:26;;;;;;;4.40;2.30;;;10.40;99.90;;;;;;5023682;28;20638;-78
2022/09/26 06:30:53;;;;;;;2.03;1.83;;;10.50;99.90;;;;;;5019923;28;20655;-78
2022/09/26 06:33:20;;;;;;;2.60;2.40;;;10.60;99.90;;;;;;5024200;28;20635;-79
2022/09/26 06:35:48;;;;;;;2.03;1.77;;;10.70;99.90;;;;;;5030454;28;21172;-79
2022/09/26 06:38:15;;;;;;;2.43;1.93;;;10.70;99.90;;;;;;5029596;28;21215;-80
2022/09/26 06:40:41;;;;;;;1.60;1.50;;;10.60;99.90;;;;;;5022221;28;20652;-79
2022/09/26 06:43:08;;;;;;;2.17;2.03;;;10.60;99.90;;;;;;5027635;28;20742;-79
2022/09/26 06:45:38;;;;;;;3.40;2.60;;;10.60;99.90;;;;;;5029650;28;20658;-79
2022/09/26 06:48:05;;;;;;;2.17;1.97;;;10.60;99.90;;;;;;5011149;28;20627;-79
2022/09/26 06:50:31;;;;;;;2.20;2.00;;;10.60;99.90;;;;;;5020709;28;21211;-79
2022/09/26 06:53:02;;;;;;;1.60;1.47;;;10.60;99.90;;;;;;5030203;28;20633;-79
2022/09/26 06:55:29;;;;;;;1.73;1.63;;;10.60;99.90;;;;;;5018560;28;20675;-78
2022/09/26 06:57:57;;;;;;;2.20;1.97;;;10.80;99.90;;;;;;5029532;28;21441;-79
2022/09/26 07:00:25;;;;;;;2.17;1.83;;;10.70;99.90;;;;;;5029656;28;20665;-78
2022/09/26 07:02:54;;;;;;;0.80;0.77;;;10.70;99.90;;;;;;5027112;28;20723;-79
2022/09/26 07:05:23;;;;;;;2.93;2.43;;;10.80;99.90;;;;;;5029172;28;20615;-79
2022/09/26 07:07:53;;;;;;;2.00;1.90;;;10.80;99.90;;;;;;5029448;28;20634;-78
2022/09/26 07:10:21;;;;;;;2.00;1.87;;;10.80;99.90;;;;;;5030163;28;20631;-78
2022/09/26 07:12:48;;;;;;;2.97;2.00;;;11.00;99.90;;;;;;5029459;28;20627;-78
2022/09/26 07:15:17;;;;;;;2.60;2.00;;;11.00;99.90;;;;;;5029447;28;20980;-79
2022/09/26 07:17:45;;;;;;;3.40;2.07;;;11.10;99.90;;;;;;5029252;28;20714;-79
2022/09/26 07:20:14;;;;;;;2.10;1.90;;;11.00;99.90;;;;;;5028783;28;20673;-79
2022/09/26 07:22:43;;;;;;;2.13;1.90;;;11.20;99.90;;;;;;5022509;28;20624;-79
2022/09/26 07:25:10;;;;;;;1.80;1.70;;;11.40;99.90;;;;;;5029513;28;20637;-78
2022/09/26 07:27:37;;;;;;;2.10;1.90;;;11.60;99.90;;;;;;5029517;28;20635;-79
2022/09/26 07:30:06;;;;;;;2.17;2.07;;;11.60;99.90;;;;;;5028102;28;21203;-79
2022/09/26 07:32:33;;;;;;;2.40;2.20;;;11.60;99.90;;;;;;5028889;28;20637;-79
2022/09/26 07:35:02;;;;;;;5.73;3.13;;;11.70;99.90;;;;;;5028293;28;20639;-78
2022/09/26 07:37:30;;;;;;;3.27;2.07;;;11.60;99.90;;;;;;5028433;28;20629;-78
2022/09/26 07:39:57;;;;;;;3.17;2.07;;;11.60;99.90;;;;;;5028710;28;20667;-79
2022/09/26 07:42:24;;;;;;;1.57;1.47;;;11.60;99.90;;;;;;5027862;28;20722;-79
2022/09/26 07:44:51;;;;;;;1.83;1.73;;;11.70;99.90;;;;;;5026702;28;20630;-79
2022/09/26 07:50:12;;;;;;;1.53;1.43;;;11.80;99.90;;;;;;5029381;28;20625;-78
2022/09/26 07:52:40;;;;;;;2.27;1.80;;;11.80;99.90;;;;;;5026848;28;20750;-78
2022/09/26 07:55:08;;;;;;;2.27;1.97;;;11.90;99.90;;;;;;5027807;28;20639;-79
2022/09/26 07:57:35;;;;;;;2.77;2.40;;;11.90;99.90;;;;;;5029306;28;20615;-78
2022/09/26 08:00:04;;;;;;;2.40;2.20;;;12.00;99.90;;;;;;5021780;28;20659;-78
2022/09/26 08:02:33;;;;;;;2.47;2.10;;;12.00;99.90;;;;;;5027760;28;20967;-78
2022/09/26 08:05:02;;;;;;;1.90;1.67;;;12.00;99.90;;;;;;5028419;28;20630;-79
2022/09/26 08:07:29;;;;;;;1.80;1.70;;;11.90;99.90;;;;;;5028149;28;20631;-79
2022/09/26 08:10:00;;;;;;;3.17;1.73;;;12.00;99.90;;;;;;5028614;28;20659;-78
2022/09/26 08:12:28;;;;;;;1.77;1.67;;;12.00;99.90;;;;;;5028186;28;20634;-78
2022/09/26 08:14:54;;;;;;;1.60;1.43;;;12.10;99.90;;;;;;5027901;28;20626;-79
2022/09/26 08:17:22;;;;;;;3.90;1.83;;;12.10;99.90;;;;;;5028389;28;21260;-78
2022/09/26 08:19:49;;;;;;;2.20;2.00;;;12.10;99.90;;;;;;5028521;28;20677;-78
2022/09/26 08:22:15;;;;;;;1.93;1.80;;;12.10;99.90;;;;;;5027120;28;21193;-78
2022/09/26 08:24:49;;;;;;;1.60;1.50;;;12.10;99.90;;;;;;5028033;28;20754;-79
2022/09/26 08:27:18;;;;;;;1.90;1.80;;;12.20;99.90;;;;;;5020114;28;20620;-79
2022/09/26 08:29:48;;;;;;;4.70;3.87;;;12.10;99.90;;;;;;5028255;28;20652;-78
2022/09/26 08:32:15;;;;;;;2.40;2.13;;;12.20;99.90;;;;;;5027868;28;20635;-79
2022/09/26 08:34:42;;;;;;;2.70;2.50;;;12.30;99.90;;;;;;5026665;28;20642;-78
2022/09/26 08:37:09;;;;;;;1.47;1.37;;;12.30;99.90;;;;;;5026553;28;20643;-78
2022/09/26 08:39:36;;;;;;;1.30;1.20;;;12.30;99.90;;;;;;5028311;28;20773;-78
2022/09/26 08:42:19;;;;;;;1.60;1.50;;;12.40;99.90;;;;;;5026367;28;20980;-78
2022/09/26 08:48:19;;;;;;;1.40;1.30;;;12.60;99.90;;;;;;5024622;28;20630;-78
2022/09/26 08:50:49;;;;;;;1.67;1.57;;;12.70;99.90;;;;;;5028570;28;21009;-79
2022/09/26 08:53:19;;;;;;;3.30;1.93;;;12.70;99.90;;;;;;5027745;28;20713;-79
2022/09/26 08:55:48;;;;;;;1.57;1.30;;;12.80;99.90;;;;;;5025892;28;21236;-78
2022/09/26 08:58:19;;;;;;;1.47;1.37;;;12.90;99.90;;;;;;5025017;28;20640;-80
2022/09/26 09:00:51;;;;;;;3.30;1.90;;;13.00;99.90;;;;;;5027966;28;20666;-78
2022/09/26 09:03:25;;;;;;;1.83;1.73;;;13.10;99.90;;;;;;5026842;28;20730;-78
2022/09/26 09:05:58;;;;;;;3.10;2.23;;;13.20;99.90;;;;;;5026340;28;20737;-79
2022/09/26 09:08:36;;;;;;;3.43;2.10;;;13.40;99.90;;;;;;5026369;28;20639;-79
2022/09/26 09:11:13;;;;;;;2.30;2.10;;;13.50;99.90;;;;;;5026957;28;20631;-78
2022/09/26 09:14:06;;;;;;;0.60;0.60;;;13.50;99.90;;;;;;5027800;28;21105;-78
2022/09/26 09:16:52;;;;;;;3.20;1.80;;;13.70;99.90;;;;;;5026339;28;20641;-80
2022/09/26 09:19:28;;;;;;;1.80;1.33;;;13.70;99.90;;;;;;5027933;28;20647;-79
2022/09/26 09:22:16;;;;;;;1.80;1.70;;;13.80;99.90;;;;;;5020329;28;20992;-79
2022/09/26 09:24:52;;;;;;;1.53;1.43;;;13.80;99.90;;;;;;5025883;28;20658;-79
2022/09/26 09:27:33;;;;;;;1.50;1.10;;;13.90;99.90;;;;;;5027530;28;20627;-79
2022/09/26 09:30:11;;;;;;;1.17;1.07;;;14.00;99.90;;;;;;5027176;28;20651;-79
2022/09/26 09:32:46;;;;;;;1.27;1.17;;;14.10;99.90;;;;;;5025487;28;20842;-79
2022/09/26 09:35:16;;;;;;;1.27;1.00;;;14.20;99.30;;;;;;5024351;28;20642;-81
2022/09/26 09:37:48;;;;;;;1.87;1.77;;;14.10;99.00;;;;;;5027464;28;20734;-79
2022/09/26 09:40:25;;;;;;;1.77;1.40;;;14.20;99.20;;;;;;5026752;28;20673;-80
2022/09/26 09:42:57;;;;;;;1.33;1.20;;;14.20;99.20;;;;;;5016232;28;20611;-79
2022/09/26 09:45:29;;;;;;;1.40;1.20;;;14.10;99.00;;;;;;5025117;28;20635;-79
2022/09/26 09:47:58;;;;;;;1.73;1.60;;;14.40;99.10;;;;;;5027648;28;20631;-78
2022/09/26 09:50:35;;;;;;;2.70;1.77;;;14.30;98.60;;;;;;5027560;28;20654;-79
2022/09/26 09:53:13;;;;;;;1.57;1.40;;;14.40;98.70;;;;;;5026411;28;20625;-78
2022/09/26 09:55:49;;;;;;;1.03;1.00;;;14.60;98.00;;;;;;5026361;28;20738;-78
2022/09/26 09:58:35;;;;;;;1.17;1.07;;;14.50;97.90;;;;;;5026688;28;20627;-78
2022/09/26 10:01:11;;;;;;;1.27;1.17;;;14.40;97.20;;;;;;5027438;28;20666;-79
2022/09/26 10:03:47;;;;;;;1.80;1.03;;;14.30;97.70;;;;;;5020359;28;20638;-79
2022/09/26 10:06:14;;;;;;;1.47;1.10;;;14.40;97.90;;;;;;5025853;28;20623;-80
2022/09/26 10:08:43;;;;;;;1.37;0.90;;;14.40;98.10;;;;;;5026016;28;20667;-78
2022/09/26 10:11:23;;;;;;;1.10;1.00;;;14.40;97.00;;;;;;5026093;28;20734;-79
2022/09/26 10:13:52;;;;;;;1.03;0.83;;;14.40;96.50;;;;;;5023568;28;20753;-79
2022/09/26 10:16:19;;;;;;;0.70;0.70;;;14.30;96.40;;;;;;5025618;28;20623;-79
2022/09/26 10:18:55;;;;;;;1.43;0.87;;;14.10;95.90;;;;;;5019681;28;20627;-79
2022/09/26 10:21:32;;;;;;;1.00;1.00;;;14.30;96.50;;;;;;5026445;28;20659;-78
2022/09/26 10:24:00;;;;;;;1.30;1.20;;;14.20;95.80;;;;;;5025442;28;20616;-78
2022/09/26 10:26:33;;;;;;;1.10;0.90;;;14.20;95.60;;;;;;5025437;28;20631;-78
2022/09/26 10:29:20;;;;;;;0.90;0.70;;;14.30;96.60;;;;;;5026417;28;20718;-78
2022/09/26 10:31:54;;;;;;;0.40;0.40;;;14.50;95.90;;;;;;5026974;28;20631;-79
2022/09/26 10:34:26;;;;;;;0.90;0.80;;;14.70;95.80;;;;;;5025237;28;20631;-79
2022/09/26 10:36:54;;;;;;;0.80;0.80;;;15.00;95.10;;;;;;5025695;28;20631;-79
2022/09/26 10:42:15;;;;;;;1.83;1.23;;;15.20;95.20;;;;;;5026076;28;21239;-79
2022/09/26 10:44:44;;;;;;;0.93;0.93;;;15.30;95.70;;;;;;5019312;28;20623;-78
2022/09/26 10:47:15;;;;;;;1.03;1.03;;;15.50;94.20;;;;;;5012939;28;20652;-79
2022/09/26 10:49:50;;;;;;;1.30;1.20;;;15.60;94.50;;;;;;5026748;28;21317;-79
2022/09/26 10:52:22;;;;;;;0.97;0.97;;;15.50;93.80;;;;;;5024663;28;20790;-79
2022/09/26 10:54:56;;;;;;;0.70;0.70;;;15.30;93.30;;;;;;5024593;28;20627;-79
2022/09/26 10:57:28;;;;;;;0.70;0.70;;;15.40;93.80;;;;;;5026332;28;20639;-79
2022/09/26 10:59:57;;;;;;;1.00;0.90;;;15.30;94.20;;;;;;5017645;28;20659;-78
2022/09/26 11:02:26;;;;;;;0.77;0.77;;;15.20;92.90;;;;;;5025452;28;20638;-79
2022/09/26 11:07:46;;;;;;;1.13;1.03;;;15.20;92.50;;;;;;5025899;28;20635;-79
2022/09/26 11:10:16;;;;;;;1.13;1.10;;;15.30;91.90;;;;;;5020103;28;20693;-79
2022/09/26 11:12:56;;;;;;;0.57;0.57;;;15.30;91.00;;;;;;5026246;28;20629;-79
2022/09/26 11:15:24;;;;;;;0.90;0.90;;;15.50;90.90;;;;;;5020156;28;20619;-79
2022/09/26 11:17:52;;;;;;;0.60;0.60;;;15.50;90.90;;;;;;5026218;28;21220;-79
2022/09/26 11:20:37;;;;;;;0.83;0.83;;;15.70;91.00;;;;;;5029418;28;20670;-78
2022/09/26 11:23:16;;;;;;;1.33;0.80;;;15.70;90.60;;;;;;5028654;28;20631;-79
2022/09/26 11:25:53;;;;;;;0.87;0.80;;;15.60;90.30;;;;;;5028042;28;20627;-78
2022/09/26 11:28:29;;;;;;;0.97;0.80;;;15.60;90.30;;;;;;5029896;28;20639;-79
2022/09/26 11:31:01;;;;;;;1.50;0.70;;;15.50;91.20;;;;;;5029309;28;20642;-78
2022/09/26 11:33:29;;;;;;;0.70;0.70;;;15.40;90.80;;;;;;5027901;28;20626;-78
2022/09/26 11:36:13;;;;;;;1.20;0.97;;;15.30;90.90;;;;;;5027386;28;20638;-78
2022/09/26 11:38:46;;;;;;;0.90;0.70;;;15.30;91.50;;;;;;5021919;28;20619;-79
2022/09/26 11:41:39;;;;;;;0.83;0.50;;;15.20;91.60;;;;;;5028190;28;20673;-78
2022/09/26 11:44:34;;;;;;;0.90;0.43;;;15.50;90.60;;;;;;5018448;28;20632;-79
2022/09/26 11:47:29;;;;;;;0.90;0.90;;;15.40;90.70;;;;;;5017936;28;20631;-78
2022/09/26 11:50:07;;;;;;;0.60;0.60;;;15.50;90.60;;;;;;5029417;28;20646;-78
2022/09/26 11:52:48;;;;;;;0.80;0.80;;;15.40;91.40;;;;;;5022926;28;21227;-79
2022/09/26 11:55:27;;;;;;;0.50;0.50;;;15.40;91.50;;;;;;5028278;28;21184;-79
2022/09/26 11:58:03;;;;;;;0.60;0.60;;;15.30;92.30;;;;;;5029378;28;20623;-78
2022/09/26 12:00:39;;;;;;;1.63;1.30;;;15.30;92.00;;;;;;5029138;28;20761;-78
2022/09/26 12:03:32;;;;;;;1.27;0.73;;;15.10;92.30;;;;;;5026847;28;20689;-78
2022/09/26 12:06:04;;;;;;;0.63;0.63;;;14.70;91.20;;;;;;5020677;28;20632;-79
2022/09/26 12:09:06;;;;;;;0.40;0.40;;;14.70;92.50;;;;;;5021901;28;20633;-78
2022/09/26 12:11:38;;;;;;;1.43;1.30;;;14.50;93.80;;;;;;5021639;28;20623;-78
2022/09/26 12:14:16;;;;;;;1.93;0.73;;;14.40;95.10;;;;;;5019445;28;20623;-78
2022/09/26 12:16:50;;;;;;;0.67;0.67;;;14.30;95.50;;;;;;5024737;28;20620;-78
2022/09/26 12:19:25;;;;;;;0.80;0.73;;;14.40;96.50;;;;;;5022464;28;20626;-79
2022/09/26 12:24:52;;;;;;;0.80;0.80;;;14.70;94.90;;;;;;5027414;28;20627;-78
2022/09/26 12:27:30;;;;;;;0.47;0.47;;;14.60;93.00;;;;;;5019205;28;20722;-78
2022/09/26 12:30:05;;;;;;;0.73;0.73;;;14.80;94.30;;;;;;5017596;28;20624;-78
2022/09/26 12:32:54;;;;;;;0.53;0.53;;;15.00;94.20;;;;;;5022250;28;21213;-78
2022/09/26 12:35:30;;;;;;;1.13;1.03;;;15.00;93.20;;;;;;5018797;28;20631;-79
2022/09/26 12:38:20;;;;;;;0.60;0.60;;;15.20;92.10;;;;;;5021021;28;20639;-78
2022/09/26 12:40:56;;;;;;;0.93;0.80;;;15.40;91.80;;;;;;5022992;28;20701;-79
2022/09/26 12:44:09;;;;;;;4.00;0.60;;;15.30;91.00;;;;;;5016432;28;20635;-78
2022/09/26 12:46:54;;;;;;;0.93;0.80;;;15.40;91.40;;;;;;5008388;28;20638;-78
2022/09/26 12:49:40;;;;;;;0.90;0.60;;;15.50;88.30;;;;;;5018740;28;20616;-78
2022/09/26 12:52:20;;;;;;;0.60;0.40;;;15.50;90.00;;;;;;5020661;28;20646;-78
2022/09/26 12:55:04;;;;;;;0.60;0.50;;;15.50;87.30;;;;;;5019337;28;20718;-78
2022/09/26 12:57:40;;;;;;;0.63;0.63;;;15.50;89.50;;;;;;5016687;28;20744;-77
2022/09/26 13:00:19;;;;;;;0.70;0.70;;;15.30;88.80;;;;;;5018356;28;20634;-77
2022/09/26 13:03:12;;;;;;;6.93;0.60;;;15.20;88.20;;;;;;5020906;28;20623;-78
2022/09/26 13:06:02;;;;;;;0.83;0.83;;;15.30;90.10;;;;;;5019119;28;20709;-78
2022/09/26 13:08:36;;;;;;;0.40;0.30;;;15.20;89.50;;;;;;5019472;28;20715;-78
2022/09/26 13:11:16;;;;;;;0.40;0.40;;;15.20;88.70;;;;;;5019337;28;20715;-77
2022/09/26 13:14:14;;;;;;;1.17;0.40;;;15.10;89.10;;;;;;5020537;28;20627;-78
2022/09/26 13:16:59;;;;;;;0.93;0.93;;;14.80;86.90;;;;;;5017645;28;20623;-78
2022/09/26 13:19:33;;;;;;;0.70;0.33;;;14.70;88.50;;;;;;5017748;28;20698;-79
2022/09/26 13:22:03;;;;;;;1.40;0.50;;;14.60;87.10;;;;;;5020397;28;20669;-79
2022/09/26 13:24:40;;;;;;;1.30;0.63;;;14.60;88.10;;;;;;5019832;28;20624;-78
2022/09/26 13:27:14;;;;;;;0.63;0.63;;;14.70;87.20;;;;;;5020731;28;20715;-80
2022/09/26 13:29:46;;;;;;;0.40;0.30;;;14.80;86.80;;;;;;5019241;28;21043;-79
2022/09/26 13:32:21;;;;;;;0.70;0.67;;;14.80;87.30;;;;;;5019116;28;20634;-80
2022/09/26 13:34:54;;;;;;;1.23;0.60;;;14.90;87.00;;;;;;5020326;28;20654;-78